createdAt,value
2023-05-21T00:00:04.501Z,0.00
2023-05-21T00:01:04.417Z,0.00
2023-05-21T00:02:04.294Z,0.00
2023-05-21T00:03:04.349Z,0.00
2023-05-21T00:04:04.323Z,0.00
2023-05-21T00:05:04.126Z,0.00
2023-05-21T00:06:04.284Z,0.00
2023-05-21T00:07:04.018Z,0.00
2023-05-21T00:08:03.948Z,0.00
2023-05-21T00:09:03.854Z,0.00
2023-05-21T00:10:03.878Z,0.00
2023-05-21T00:11:03.806Z,0.00
2023-05-21T00:12:03.726Z,0.00
2023-05-21T00:13:03.619Z,0.00
2023-05-21T00:14:03.574Z,0.00
2023-05-21T00:15:03.537Z,0.00
2023-05-21T00:16:04.312Z,0.00
2023-05-21T00:17:03.426Z,0.00
2023-05-21T00:18:03.459Z,0.00
2023-05-21T00:19:03.268Z,0.00
2023-05-21T00:20:03.199Z,0.00
2023-05-21T00:21:03.235Z,0.00
2023-05-21T00:22:03.086Z,0.00
2023-05-21T00:23:03.027Z,0.00
2023-05-21T00:24:03.110Z,0.00
2023-05-21T00:25:02.894Z,0.00
2023-05-21T00:26:02.857Z,0.00
2023-05-21T00:27:02.738Z,0.00
2023-05-21T00:28:02.748Z,0.00
2023-05-21T00:29:02.643Z,0.00
2023-05-21T00:30:02.542Z,0.00
2023-05-21T00:31:02.563Z,0.00
2023-05-21T00:32:02.572Z,0.00
2023-05-21T00:33:02.748Z,0.00
2023-05-21T00:34:02.980Z,0.00
2023-05-21T00:35:02.270Z,0.00
2023-05-21T00:36:02.188Z,0.00
2023-05-21T00:37:02.129Z,0.00
2023-05-21T00:38:02.077Z,0.00
2023-05-21T00:39:02.004Z,0.00
2023-05-21T00:40:01.981Z,0.00
2023-05-21T00:41:01.928Z,0.00
2023-05-21T00:42:01.836Z,0.00
2023-05-21T00:43:01.820Z,0.00
2023-05-21T00:44:01.718Z,0.00
2023-05-21T00:45:01.666Z,0.00
2023-05-21T00:46:01.663Z,0.00
2023-05-21T00:47:01.532Z,0.00
2023-05-21T00:48:01.589Z,0.00
2023-05-21T00:49:01.361Z,0.00
2023-05-21T00:50:01.315Z,0.00
2023-05-21T00:51:01.257Z,0.00
2023-05-21T00:52:01.219Z,0.00
2023-05-21T00:53:01.153Z,0.00
2023-05-21T00:54:01.132Z,0.00
2023-05-21T00:55:01.062Z,0.00
2023-05-21T00:56:00.958Z,0.00
2023-05-21T00:57:00.929Z,0.00
2023-05-21T00:58:00.845Z,0.00
2023-05-21T00:59:00.766Z,0.00
2023-05-21T01:00:00.756Z,0.00
2023-05-21T01:01:01.610Z,0.00
2023-05-21T01:02:00.622Z,0.00
2023-05-21T01:03:00.595Z,0.00
2023-05-21T01:04:00.505Z,0.00
2023-05-21T01:05:00.407Z,0.00
2023-05-21T01:06:00.454Z,0.00
2023-05-21T01:07:00.263Z,0.00
2023-05-21T01:08:00.270Z,0.00
2023-05-21T01:09:00.140Z,0.00
2023-05-21T01:10:00.109Z,0.00
2023-05-21T01:11:00.102Z,0.00
2023-05-21T01:11:59.944Z,0.00
2023-05-21T01:12:59.934Z,0.00
2023-05-21T01:13:59.885Z,0.00
2023-05-21T01:14:59.787Z,0.00
2023-05-21T01:15:59.768Z,0.00
2023-05-21T01:17:00.260Z,0.00
2023-05-21T01:17:59.650Z,0.00
2023-05-21T01:18:59.826Z,0.00
2023-05-21T01:19:59.460Z,0.00
2023-05-21T01:20:59.374Z,1.00
2023-05-21T01:21:59.346Z,0.00
2023-05-21T01:22:59.293Z,0.00
2023-05-21T01:23:59.222Z,0.00
2023-05-21T01:24:59.321Z,0.00
2023-05-21T01:25:59.094Z,0.00
2023-05-21T01:26:59.139Z,0.00
2023-05-21T01:27:58.952Z,0.00
2023-05-21T01:28:58.906Z,0.00
2023-05-21T01:29:58.780Z,1.00
2023-05-21T01:30:58.804Z,0.00
2023-05-21T01:31:58.684Z,0.00
2023-05-21T01:32:58.815Z,0.00
2023-05-21T01:33:58.679Z,0.00
2023-05-21T01:34:58.508Z,0.00
2023-05-21T01:35:58.465Z,0.00
2023-05-21T01:36:58.416Z,0.00
2023-05-21T01:37:58.348Z,0.00
2023-05-21T01:38:58.293Z,0.00
2023-05-21T01:39:58.206Z,0.00
2023-05-21T01:40:58.182Z,0.00
2023-05-21T01:41:58.157Z,0.00
2023-05-21T01:42:58.039Z,0.00
2023-05-21T01:43:57.988Z,0.00
2023-05-21T01:44:57.897Z,0.00
2023-05-21T01:45:57.808Z,1.00
2023-05-21T01:46:57.790Z,0.00
2023-05-21T01:47:57.770Z,0.00
2023-05-21T01:48:57.677Z,0.00
2023-05-21T01:49:57.555Z,0.00
2023-05-21T01:50:57.511Z,0.00
2023-05-21T01:51:57.485Z,0.00
2023-05-21T01:52:57.410Z,0.00
2023-05-21T01:53:57.387Z,0.00
2023-05-21T01:54:57.285Z,0.00
2023-05-21T01:55:57.236Z,0.00
2023-05-21T01:56:57.137Z,0.00
2023-05-21T01:57:57.102Z,0.00
2023-05-21T01:58:57.078Z,0.00
2023-05-21T01:59:57.020Z,0.00
2023-05-21T02:00:57.785Z,0.00
2023-05-21T02:01:57.821Z,0.00
2023-05-21T02:02:56.962Z,0.00
2023-05-21T02:03:56.777Z,0.00
2023-05-21T02:04:56.638Z,0.00
2023-05-21T02:05:56.586Z,0.00
2023-05-21T02:06:56.518Z,0.00
2023-05-21T02:07:56.497Z,0.00
2023-05-21T02:08:56.451Z,0.00
2023-05-21T02:09:56.360Z,0.00
2023-05-21T02:10:56.265Z,0.00
2023-05-21T02:11:56.247Z,0.00
2023-05-21T02:12:56.152Z,0.00
2023-05-21T02:13:56.087Z,0.00
2023-05-21T02:14:55.993Z,0.00
2023-05-21T02:15:56.038Z,0.00
2023-05-21T02:16:55.905Z,0.00
2023-05-21T02:17:55.962Z,0.00
2023-05-21T02:18:55.831Z,0.00
2023-05-21T02:19:55.735Z,0.00
2023-05-21T02:20:55.675Z,0.00
2023-05-21T02:21:56.481Z,0.00
2023-05-21T02:22:55.498Z,0.00
2023-05-21T02:23:55.495Z,0.00
2023-05-21T02:24:55.408Z,0.00
2023-05-21T02:25:55.340Z,0.00
2023-05-21T02:26:55.422Z,0.00
2023-05-21T02:27:55.211Z,0.00
2023-05-21T02:28:55.177Z,0.00
2023-05-21T02:29:55.110Z,0.00
2023-05-21T02:30:55.148Z,0.00
2023-05-21T02:31:55.006Z,0.00
2023-05-21T02:32:55.044Z,0.00
2023-05-21T02:33:55.840Z,0.00
2023-05-21T02:34:54.768Z,0.00
2023-05-21T02:35:54.760Z,0.00
2023-05-21T02:36:54.725Z,0.00
2023-05-21T02:37:54.629Z,0.00
2023-05-21T02:38:54.749Z,0.00
2023-05-21T02:39:54.461Z,0.00
2023-05-21T02:40:54.389Z,0.00
2023-05-21T02:41:54.360Z,0.00
2023-05-21T02:42:54.313Z,0.00
2023-05-21T02:43:54.236Z,0.00
2023-05-21T02:44:54.196Z,0.00
2023-05-21T02:45:54.164Z,0.00
2023-05-21T02:46:54.796Z,0.00
2023-05-21T02:47:54.765Z,0.00
2023-05-21T02:48:53.906Z,0.00
2023-05-21T02:49:54.017Z,0.00
2023-05-21T02:50:53.766Z,0.00
2023-05-21T02:51:53.743Z,0.00
2023-05-21T02:52:53.627Z,1.00
2023-05-21T02:53:53.582Z,0.00
2023-05-21T02:54:53.492Z,1.00
2023-05-21T02:55:53.419Z,1.00
2023-05-21T02:56:53.371Z,1.00
2023-05-21T02:57:53.283Z,1.00
2023-05-21T02:58:53.261Z,1.00
2023-05-21T02:59:53.247Z,2.00
2023-05-21T03:00:54.018Z,2.00
2023-05-21T03:01:53.081Z,2.00
2023-05-21T03:02:53.138Z,1.00
2023-05-21T03:03:52.903Z,1.00
2023-05-21T03:04:53.738Z,3.00
2023-05-21T03:05:52.930Z,4.00
2023-05-21T03:06:52.756Z,4.00
2023-05-21T03:07:52.723Z,8.00
2023-05-21T03:08:52.629Z,7.00
2023-05-21T03:09:52.566Z,7.00
2023-05-21T03:10:52.535Z,9.00
2023-05-21T03:11:52.440Z,9.00
2023-05-21T03:12:52.387Z,10.00
2023-05-21T03:13:52.295Z,10.00
2023-05-21T03:14:52.254Z,11.00
2023-05-21T03:15:52.154Z,9.00
2023-05-21T03:16:52.178Z,9.00
2023-05-21T03:17:52.174Z,15.00
2023-05-21T03:18:52.868Z,15.00
2023-05-21T03:19:51.985Z,17.00
2023-05-21T03:20:51.820Z,17.00
2023-05-21T03:21:53.254Z,18.00
2023-05-21T03:22:51.785Z,19.00
2023-05-21T03:23:51.686Z,22.00
2023-05-21T03:24:51.636Z,25.00
2023-05-21T03:25:51.514Z,25.00
2023-05-21T03:26:51.521Z,25.00
2023-05-21T03:27:51.412Z,24.00
2023-05-21T03:28:51.417Z,32.00
2023-05-21T03:29:51.313Z,35.00
2023-05-21T03:30:51.378Z,39.00
2023-05-21T03:31:51.174Z,41.00
2023-05-21T03:32:51.118Z,45.00
2023-05-21T03:33:51.057Z,44.00
2023-05-21T03:34:50.962Z,45.00
2023-05-21T03:35:50.942Z,50.00
2023-05-21T03:36:50.967Z,55.00
2023-05-21T03:37:50.832Z,61.00
2023-05-21T03:38:50.752Z,67.00
2023-05-21T03:39:50.691Z,76.00
2023-05-21T03:40:50.599Z,77.00
2023-05-21T03:41:50.563Z,76.00
2023-05-21T03:42:50.535Z,85.00
2023-05-21T03:43:50.452Z,93.00
2023-05-21T03:44:50.376Z,99.00
2023-05-21T03:45:50.315Z,110.00
2023-05-21T03:46:50.288Z,120.00
2023-05-21T03:47:50.245Z,123.00
2023-05-21T03:48:50.126Z,133.00
2023-05-21T03:49:50.013Z,139.00
2023-05-21T03:50:49.984Z,148.00
2023-05-21T03:51:49.885Z,161.00
2023-05-21T03:52:49.847Z,159.00
2023-05-21T03:53:50.982Z,168.00
2023-05-21T03:54:49.734Z,178.00
2023-05-21T03:55:49.686Z,188.00
2023-05-21T03:56:49.631Z,195.00
2023-05-21T03:57:49.608Z,209.00
2023-05-21T03:58:49.508Z,221.00
2023-05-21T03:59:49.423Z,228.00
2023-05-21T04:00:49.397Z,232.00
2023-05-21T04:01:49.345Z,249.00
2023-05-21T04:02:49.278Z,260.00
2023-05-21T04:03:49.398Z,269.00
2023-05-21T04:04:49.269Z,279.00
2023-05-21T04:05:49.047Z,289.00
2023-05-21T04:06:49.004Z,297.00
2023-05-21T04:07:48.943Z,315.00
2023-05-21T04:08:48.879Z,329.00
2023-05-21T04:09:48.846Z,340.00
2023-05-21T04:10:48.727Z,350.00
2023-05-21T04:11:48.729Z,355.00
2023-05-21T04:12:48.643Z,361.00
2023-05-21T04:13:48.576Z,374.00
2023-05-21T04:14:48.524Z,379.00
2023-05-21T04:15:48.442Z,393.00
2023-05-21T04:16:48.386Z,401.00
2023-05-21T04:17:48.358Z,408.00
2023-05-21T04:18:48.282Z,412.00
2023-05-21T04:19:48.232Z,417.00
2023-05-21T04:20:48.163Z,420.00
2023-05-21T04:21:48.064Z,419.00
2023-05-21T04:22:47.986Z,423.00
2023-05-21T04:23:47.989Z,425.00
2023-05-21T04:24:47.886Z,423.00
2023-05-21T04:25:47.793Z,425.00
2023-05-21T04:26:48.969Z,428.00
2023-05-21T04:27:47.791Z,434.00
2023-05-21T04:28:47.651Z,437.00
2023-05-21T04:29:48.958Z,437.00
2023-05-21T04:30:47.535Z,439.00
2023-05-21T04:31:47.510Z,444.00
2023-05-21T04:32:47.407Z,451.00
2023-05-21T04:33:47.319Z,456.00
2023-05-21T04:34:47.240Z,454.00
2023-05-21T04:35:47.410Z,456.00
2023-05-21T04:36:47.756Z,452.00
2023-05-21T04:37:47.221Z,455.00
2023-05-21T04:38:47.013Z,454.00
2023-05-21T04:39:46.902Z,463.00
2023-05-21T04:40:46.884Z,465.00
2023-05-21T04:41:46.781Z,463.00
2023-05-21T04:42:46.767Z,461.00
2023-05-21T04:43:46.834Z,461.00
2023-05-21T04:44:46.615Z,462.00
2023-05-21T04:45:46.545Z,462.00
2023-05-21T04:46:46.506Z,464.00
2023-05-21T04:47:46.495Z,469.00
2023-05-21T04:48:46.364Z,465.00
2023-05-21T04:49:46.368Z,465.00
2023-05-21T04:50:46.221Z,464.00
2023-05-21T04:51:46.198Z,467.00
2023-05-21T04:52:46.178Z,466.00
2023-05-21T04:53:46.079Z,463.00
2023-05-21T04:54:46.019Z,467.00
2023-05-21T04:55:46.167Z,475.00
2023-05-21T04:56:46.748Z,474.00
2023-05-21T04:57:45.793Z,485.00
2023-05-21T04:58:45.723Z,482.00
2023-05-21T04:59:45.702Z,496.00
2023-05-21T05:00:45.721Z,504.00
2023-05-21T05:01:45.625Z,510.00
2023-05-21T05:02:45.564Z,525.00
2023-05-21T05:03:45.444Z,540.00
2023-05-21T05:04:45.343Z,549.00
2023-05-21T05:05:45.305Z,566.00
2023-05-21T05:06:45.300Z,575.00
2023-05-21T05:07:45.181Z,585.00
2023-05-21T05:08:45.090Z,595.00
2023-05-21T05:09:45.049Z,606.00
2023-05-21T05:10:45.050Z,619.00
2023-05-21T05:11:44.953Z,626.00
2023-05-21T05:12:44.861Z,641.00
2023-05-21T05:13:44.831Z,664.00
2023-05-21T05:14:45.246Z,689.00
2023-05-21T05:15:44.703Z,709.00
2023-05-21T05:16:44.734Z,732.00
2023-05-21T05:17:45.264Z,759.00
2023-05-21T05:18:44.541Z,781.00
2023-05-21T05:19:44.410Z,810.00
2023-05-21T05:20:44.371Z,829.00
2023-05-21T05:21:44.387Z,854.00
2023-05-21T05:22:44.271Z,882.00
2023-05-21T05:23:44.214Z,907.00
2023-05-21T05:24:44.119Z,934.00
2023-05-21T05:25:44.085Z,964.00
2023-05-21T05:26:44.000Z,982.00
2023-05-21T05:27:43.924Z,1001.00
2023-05-21T05:28:43.914Z,1018.00
2023-05-21T05:29:43.855Z,1065.00
2023-05-21T05:30:43.780Z,1151.00
2023-05-21T05:31:43.667Z,1163.00
2023-05-21T05:32:44.540Z,1169.00
2023-05-21T05:33:43.633Z,1187.00
2023-05-21T05:34:43.527Z,1197.00
2023-05-21T05:35:43.488Z,1206.00
2023-05-21T05:36:43.429Z,1219.00
2023-05-21T05:37:43.289Z,1230.00
2023-05-21T05:38:43.300Z,1247.00
2023-05-21T05:39:43.240Z,1271.00
2023-05-21T05:40:43.184Z,1293.00
2023-05-21T05:41:43.120Z,1344.00
2023-05-21T05:42:43.023Z,1380.00
2023-05-21T05:43:42.927Z,1413.00
2023-05-21T05:44:42.900Z,1447.00
2023-05-21T05:45:42.789Z,1481.00
2023-05-21T05:46:42.851Z,1485.00
2023-05-21T05:47:42.737Z,1420.00
2023-05-21T05:48:42.651Z,1797.00
2023-05-21T05:49:42.586Z,1781.00
2023-05-21T05:50:42.505Z,1634.00
2023-05-21T05:51:42.489Z,1630.00
2023-05-21T05:52:42.355Z,1608.00
2023-05-21T05:53:42.339Z,1606.00
2023-05-21T05:54:42.330Z,1597.00
2023-05-21T05:55:42.163Z,1591.00
2023-05-21T05:56:42.156Z,1597.00
2023-05-21T05:57:43.772Z,1565.00
2023-05-21T05:58:42.029Z,1465.00
2023-05-21T05:59:41.937Z,1914.00
2023-05-21T06:00:41.883Z,1730.00
2023-05-21T06:01:42.049Z,1566.00
2023-05-21T06:02:41.833Z,1689.00
2023-05-21T06:03:41.936Z,1626.00
2023-05-21T06:04:41.635Z,1567.00
2023-05-21T06:05:41.664Z,1610.00
2023-05-21T06:06:41.531Z,1566.00
2023-05-21T06:07:41.461Z,1574.00
2023-05-21T06:08:41.403Z,1552.00
2023-05-21T06:09:41.396Z,1561.00
2023-05-21T06:10:41.236Z,1517.00
2023-05-21T06:11:41.195Z,1508.00
2023-05-21T06:12:41.134Z,1531.00
2023-05-21T06:13:41.064Z,1559.00
2023-05-21T06:14:41.819Z,1533.00
2023-05-21T06:15:41.052Z,1504.00
2023-05-21T06:16:41.528Z,1495.00
2023-05-21T06:17:40.872Z,1492.00
2023-05-21T06:18:40.812Z,1494.00
2023-05-21T06:19:41.453Z,1494.00
2023-05-21T06:20:40.640Z,1526.00
2023-05-21T06:21:41.480Z,1519.00
2023-05-21T06:22:40.565Z,1503.00
2023-05-21T06:23:40.517Z,1502.00
2023-05-21T06:24:40.966Z,1497.00
2023-05-21T06:25:40.405Z,1501.00
2023-05-21T06:26:40.298Z,1517.00
2023-05-21T06:27:40.267Z,1530.00
2023-05-21T06:28:40.196Z,1531.00
2023-05-21T06:29:40.773Z,1533.00
2023-05-21T06:30:40.023Z,1542.00
2023-05-21T06:31:39.969Z,1544.00
2023-05-21T06:32:40.035Z,1555.00
2023-05-21T06:33:39.910Z,1543.00
2023-05-21T06:34:39.775Z,1568.00
2023-05-21T06:35:39.710Z,1583.00
2023-05-21T06:36:39.638Z,1600.00
2023-05-21T06:37:39.623Z,1626.00
2023-05-21T06:38:39.562Z,1706.00
2023-05-21T06:39:40.767Z,1782.00
2023-05-21T06:40:39.492Z,1781.00
2023-05-21T06:41:39.353Z,1789.00
2023-05-21T06:42:39.340Z,1954.00
2023-05-21T06:43:39.237Z,2038.00
2023-05-21T06:44:39.163Z,2122.00
2023-05-21T06:45:39.391Z,2191.00
2023-05-21T06:46:39.103Z,2170.00
2023-05-21T06:47:39.073Z,2158.00
2023-05-21T06:48:38.937Z,2297.00
2023-05-21T06:49:38.857Z,2333.00
2023-05-21T06:50:38.834Z,2283.00
2023-05-21T06:51:38.804Z,2488.00
2023-05-21T06:52:38.724Z,2389.00
2023-05-21T06:53:38.578Z,2459.00
2023-05-21T06:54:38.545Z,2415.00
2023-05-21T06:55:38.705Z,2392.00
2023-05-21T06:56:38.418Z,2384.00
2023-05-21T06:57:38.387Z,2566.00
2023-05-21T06:58:38.356Z,2216.00
2023-05-21T06:59:38.258Z,1115.00
2023-05-21T07:00:38.262Z,6300.00
2023-05-21T07:01:38.264Z,5107.00
2023-05-21T07:02:38.114Z,4008.00
2023-05-21T07:03:38.034Z,3232.00
2023-05-21T07:04:37.937Z,2820.00
2023-05-21T07:05:38.327Z,2846.00
2023-05-21T07:06:37.834Z,2711.00
2023-05-21T07:07:37.761Z,2834.00
2023-05-21T07:08:37.665Z,3405.00
2023-05-21T07:09:37.681Z,3272.00
2023-05-21T07:10:37.634Z,2777.00
2023-05-21T07:11:37.558Z,2662.00
2023-05-21T07:12:37.424Z,2682.00
2023-05-21T07:13:37.455Z,2719.00
2023-05-21T07:14:37.326Z,2765.00
2023-05-21T07:15:38.324Z,2842.00
2023-05-21T07:16:37.303Z,2911.00
2023-05-21T07:17:37.222Z,3037.00
2023-05-21T07:18:37.098Z,3558.00
2023-05-21T07:19:37.033Z,3011.00
2023-05-21T07:20:39.330Z,4567.00
2023-05-21T07:21:36.910Z,3776.00
2023-05-21T07:22:36.811Z,4700.00
2023-05-21T07:23:36.776Z,3726.00
2023-05-21T07:24:36.721Z,4712.00
2023-05-21T07:25:36.852Z,5170.00
2023-05-21T07:26:36.600Z,4844.00
2023-05-21T07:27:36.551Z,3999.00
2023-05-21T07:28:36.511Z,4268.00
2023-05-21T07:29:36.410Z,3662.00
2023-05-21T07:30:36.294Z,3733.00
2023-05-21T07:31:36.331Z,3806.00
2023-05-21T07:32:36.248Z,3599.00
2023-05-21T07:33:36.151Z,3575.00
2023-05-21T07:34:36.096Z,3486.00
2023-05-21T07:35:36.425Z,3732.00
2023-05-21T07:36:36.023Z,3725.00
2023-05-21T07:37:35.970Z,4156.00
2023-05-21T07:38:35.817Z,4387.00
2023-05-21T07:39:35.803Z,4271.00
2023-05-21T07:40:35.734Z,4146.00
2023-05-21T07:41:35.684Z,5806.00
2023-05-21T07:42:35.596Z,6363.00
2023-05-21T07:43:35.608Z,6702.00
2023-05-21T07:44:35.494Z,5956.00
2023-05-21T07:45:35.617Z,5232.00
2023-05-21T07:46:35.396Z,8313.00
2023-05-21T07:47:35.332Z,7772.00
2023-05-21T07:48:35.839Z,6632.00
2023-05-21T07:49:35.152Z,4542.00
2023-05-21T07:50:35.083Z,8445.00
2023-05-21T07:51:35.107Z,8069.00
2023-05-21T07:52:35.097Z,7712.00
2023-05-21T07:53:34.936Z,6909.00
2023-05-21T07:54:34.844Z,5712.00
2023-05-21T07:55:35.004Z,5453.00
2023-05-21T07:56:34.722Z,5176.00
2023-05-21T07:57:34.700Z,4961.00
2023-05-21T07:58:34.751Z,4816.00
2023-05-21T07:59:34.574Z,4538.00
2023-05-21T08:00:34.498Z,4357.00
2023-05-21T08:01:34.454Z,4324.00
2023-05-21T08:02:34.383Z,4288.00
2023-05-21T08:03:34.546Z,4736.00
2023-05-21T08:04:34.460Z,4553.00
2023-05-21T08:05:34.309Z,4400.00
2023-05-21T08:06:34.089Z,4921.00
2023-05-21T08:07:34.054Z,4611.00
2023-05-21T08:08:34.026Z,4151.00
2023-05-21T08:09:33.969Z,4257.00
2023-05-21T08:10:33.896Z,4149.00
2023-05-21T08:11:33.866Z,4118.00
2023-05-21T08:12:33.746Z,4047.00
2023-05-21T08:13:33.728Z,4516.00
2023-05-21T08:14:33.687Z,4535.00
2023-05-21T08:15:33.597Z,3954.00
2023-05-21T08:16:33.576Z,3838.00
2023-05-21T08:17:33.462Z,3690.00
2023-05-21T08:18:34.247Z,3610.00
2023-05-21T08:19:33.505Z,3595.00
2023-05-21T08:20:33.332Z,3666.00
2023-05-21T08:21:33.236Z,3586.00
2023-05-21T08:22:33.209Z,3502.00
2023-05-21T08:23:33.057Z,3669.00
2023-05-21T08:24:33.018Z,3928.00
2023-05-21T08:25:33.021Z,5307.00
2023-05-21T08:26:32.929Z,5081.00
2023-05-21T08:27:34.086Z,4395.00
2023-05-21T08:28:32.788Z,4389.00
2023-05-21T08:29:32.690Z,5117.00
2023-05-21T08:30:32.692Z,4823.00
2023-05-21T08:31:32.637Z,4420.00
2023-05-21T08:32:32.632Z,5827.00
2023-05-21T08:33:32.450Z,6746.00
2023-05-21T08:34:32.420Z,7307.00
2023-05-21T08:35:32.338Z,7992.00
2023-05-21T08:36:32.359Z,7536.00
2023-05-21T08:37:32.261Z,8167.00
2023-05-21T08:38:32.275Z,8978.00
2023-05-21T08:39:32.105Z,8203.00
2023-05-21T08:40:32.062Z,8356.00
2023-05-21T08:41:31.990Z,6839.00
2023-05-21T08:42:37.121Z,6592.00
2023-05-21T08:43:31.905Z,9601.00
2023-05-21T08:44:31.859Z,10677.00
2023-05-21T08:45:31.873Z,11892.00
2023-05-21T08:46:31.761Z,9892.00
2023-05-21T08:47:31.637Z,8673.00
2023-05-21T08:48:31.607Z,16414.00
2023-05-21T08:49:31.534Z,12268.00
2023-05-21T08:50:31.475Z,11041.00
2023-05-21T08:51:31.469Z,8132.00
2023-05-21T08:52:31.354Z,6938.00
2023-05-21T08:53:31.240Z,6073.00
2023-05-21T08:54:31.236Z,5847.00
2023-05-21T08:55:31.193Z,5195.00
2023-05-21T08:56:31.214Z,4692.00
2023-05-21T08:57:31.023Z,4455.00
2023-05-21T08:58:30.968Z,4128.00
2023-05-21T08:59:30.980Z,3953.00
2023-05-21T09:00:30.851Z,3916.00
2023-05-21T09:01:30.829Z,3733.00
2023-05-21T09:02:30.848Z,3804.00
2023-05-21T09:03:30.891Z,3951.00
2023-05-21T09:04:30.604Z,3895.00
2023-05-21T09:05:30.567Z,3747.00
2023-05-21T09:06:30.527Z,3665.00
2023-05-21T09:07:30.466Z,3584.00
2023-05-21T09:08:30.390Z,3670.00
2023-05-21T09:09:30.338Z,4406.00
2023-05-21T09:10:30.283Z,4030.00
2023-05-21T09:11:30.266Z,3808.00
2023-05-21T09:12:30.175Z,3750.00
2023-05-21T09:13:30.088Z,3677.00
2023-05-21T09:14:30.046Z,3796.00
2023-05-21T09:15:29.948Z,3853.00
2023-05-21T09:16:29.972Z,3589.00
2023-05-21T09:17:29.940Z,3537.00
2023-05-21T09:18:29.757Z,3340.00
2023-05-21T09:19:29.755Z,3258.00
2023-05-21T09:20:29.707Z,3149.00
2023-05-21T09:21:29.581Z,3104.00
2023-05-21T09:22:29.618Z,3055.00
2023-05-21T09:23:29.547Z,3003.00
2023-05-21T09:24:29.410Z,3027.00
2023-05-21T09:25:29.380Z,3042.00
2023-05-21T09:26:29.312Z,3083.00
2023-05-21T09:27:29.229Z,3054.00
2023-05-21T09:28:29.213Z,3033.00
2023-05-21T09:29:29.703Z,3051.00
2023-05-21T09:30:31.158Z,3074.00
2023-05-21T09:31:29.044Z,3042.00
2023-05-21T09:32:29.074Z,3068.00
2023-05-21T09:33:28.909Z,3015.00
2023-05-21T09:34:29.766Z,3048.00
2023-05-21T09:35:28.812Z,3070.00
2023-05-21T09:36:28.689Z,3101.00
2023-05-21T09:37:28.689Z,3101.00
2023-05-21T09:38:28.605Z,3061.00
2023-05-21T09:39:29.239Z,3038.00
2023-05-21T09:40:28.493Z,3260.00
2023-05-21T09:41:28.459Z,3328.00
2023-05-21T09:42:28.375Z,4269.00
2023-05-21T09:43:28.322Z,5953.00
2023-05-21T09:44:28.226Z,3816.00
2023-05-21T09:45:28.235Z,4432.00
2023-05-21T09:46:28.127Z,4936.00
2023-05-21T09:47:28.103Z,5874.00
2023-05-21T09:48:28.038Z,5741.00
2023-05-21T09:49:28.222Z,5598.00
2023-05-21T09:50:28.000Z,6500.00
2023-05-21T09:51:28.532Z,5455.00
2023-05-21T09:52:27.787Z,5802.00
2023-05-21T09:53:27.747Z,4974.00
2023-05-21T09:54:27.765Z,4543.00
2023-05-21T09:55:27.543Z,4342.00
2023-05-21T09:56:27.527Z,5440.00
2023-05-21T09:57:27.421Z,5766.00
2023-05-21T09:58:27.425Z,5950.00
2023-05-21T09:59:27.280Z,5114.00
2023-05-21T10:00:27.258Z,5266.00
2023-05-21T10:01:27.225Z,5321.00
2023-05-21T10:02:27.202Z,5343.00
2023-05-21T10:03:27.167Z,4850.00
2023-05-21T10:04:27.069Z,4830.00
2023-05-21T10:05:26.980Z,5118.00
2023-05-21T10:06:26.875Z,5328.00
2023-05-21T10:07:26.912Z,5278.00
2023-05-21T10:08:26.795Z,4995.00
2023-05-21T10:09:26.771Z,4949.00
2023-05-21T10:10:26.664Z,4766.00
2023-05-21T10:11:26.579Z,4427.00
2023-05-21T10:12:26.528Z,4108.00
2023-05-21T10:13:26.445Z,3937.00
2023-05-21T10:14:26.382Z,4065.00
2023-05-21T10:15:26.441Z,4050.00
2023-05-21T10:16:26.323Z,4292.00
2023-05-21T10:17:26.288Z,4222.00
2023-05-21T10:18:26.208Z,4250.00
2023-05-21T10:19:26.494Z,4090.00
2023-05-21T10:20:26.088Z,4021.00
2023-05-21T10:21:26.000Z,4423.00
2023-05-21T10:22:25.932Z,4548.00
2023-05-21T10:23:25.849Z,4617.00
2023-05-21T10:24:25.891Z,4607.00
2023-05-21T10:25:25.785Z,4551.00
2023-05-21T10:26:25.831Z,4392.00
2023-05-21T10:27:25.657Z,4213.00
2023-05-21T10:28:25.575Z,4051.00
2023-05-21T10:29:25.509Z,4275.00
2023-05-21T10:30:25.485Z,4115.00
2023-05-21T10:31:25.426Z,4420.00
2023-05-21T10:32:25.462Z,4350.00
2023-05-21T10:33:25.425Z,4275.00
2023-05-21T10:34:25.247Z,4276.00
2023-05-21T10:35:25.151Z,4314.00
2023-05-21T10:36:25.108Z,4419.00
2023-05-21T10:37:25.093Z,4506.00
2023-05-21T10:38:25.006Z,4522.00
2023-05-21T10:39:24.950Z,4729.00
2023-05-21T10:40:24.976Z,4737.00
2023-05-21T10:41:24.857Z,4658.00
2023-05-21T10:42:24.775Z,4452.00
2023-05-21T10:43:24.672Z,4816.00
2023-05-21T10:44:24.641Z,4886.00
2023-05-21T10:45:24.823Z,4660.00
2023-05-21T10:46:25.474Z,4727.00
2023-05-21T10:47:24.480Z,4598.00
2023-05-21T10:48:24.378Z,4477.00
2023-05-21T10:49:24.378Z,4524.00
2023-05-21T10:50:24.286Z,4616.00
2023-05-21T10:51:24.427Z,4416.00
2023-05-21T10:52:24.204Z,4497.00
2023-05-21T10:53:24.144Z,4695.00
2023-05-21T10:54:24.054Z,5392.00
2023-05-21T10:55:24.041Z,4884.00
2023-05-21T10:56:24.757Z,4568.00
2023-05-21T10:57:23.918Z,4360.00
2023-05-21T10:58:23.801Z,4465.00
2023-05-21T10:59:24.817Z,4405.00
2023-05-21T11:00:23.652Z,4453.00
2023-05-21T11:01:23.663Z,4437.00
2023-05-21T11:02:23.586Z,4446.00
2023-05-21T11:03:23.693Z,3678.00
2023-05-21T11:04:23.433Z,7057.00
2023-05-21T11:05:23.553Z,10736.00
2023-05-21T11:06:23.394Z,11447.00
2023-05-21T11:07:23.257Z,7921.00
2023-05-21T11:08:23.196Z,5684.00
2023-05-21T11:09:23.149Z,5095.00
2023-05-21T11:10:23.126Z,4885.00
2023-05-21T11:11:23.144Z,4873.00
2023-05-21T11:12:22.986Z,4595.00
2023-05-21T11:13:22.928Z,4666.00
2023-05-21T11:14:22.837Z,4614.00
2023-05-21T11:15:22.776Z,4422.00
2023-05-21T11:16:22.758Z,4470.00
2023-05-21T11:17:22.750Z,4496.00
2023-05-21T11:18:22.656Z,4497.00
2023-05-21T11:19:22.582Z,4394.00
2023-05-21T11:20:22.478Z,4371.00
2023-05-21T11:21:22.420Z,4431.00
2023-05-21T11:22:22.442Z,4358.00
2023-05-21T11:23:22.297Z,4371.00
2023-05-21T11:24:22.228Z,4298.00
2023-05-21T11:25:22.245Z,4271.00
2023-05-21T11:26:22.129Z,4180.00
2023-05-21T11:27:22.094Z,3998.00
2023-05-21T11:28:22.021Z,3940.00
2023-05-21T11:29:21.945Z,3871.00
2023-05-21T11:30:21.909Z,3730.00
2023-05-21T11:31:21.857Z,3674.00
2023-05-21T11:32:21.785Z,3668.00
2023-05-21T11:33:21.784Z,3578.00
2023-05-21T11:34:21.622Z,3452.00
2023-05-21T11:35:21.637Z,3327.00
2023-05-21T11:36:22.497Z,3262.00
2023-05-21T11:37:21.496Z,3199.00
2023-05-21T11:38:21.481Z,3232.00
2023-05-21T11:39:22.345Z,3224.00
2023-05-21T11:40:22.741Z,3181.00
2023-05-21T11:41:21.253Z,3206.00
2023-05-21T11:42:21.190Z,3233.00
2023-05-21T11:43:21.116Z,3298.00
2023-05-21T11:44:21.067Z,3250.00
2023-05-21T11:45:21.024Z,3395.00
2023-05-21T11:46:20.952Z,3605.00
2023-05-21T11:47:20.920Z,3644.00
2023-05-21T11:48:20.898Z,3428.00
2023-05-21T11:49:20.818Z,2182.00
2023-05-21T11:50:20.850Z,9766.00
2023-05-21T11:51:20.688Z,17977.00
2023-05-21T11:52:21.492Z,23916.00
2023-05-21T11:53:20.542Z,19073.00
2023-05-21T11:54:20.534Z,16389.00
2023-05-21T11:55:20.468Z,14479.00
2023-05-21T11:56:20.344Z,17422.00
2023-05-21T11:57:20.311Z,20017.00
2023-05-21T11:58:20.303Z,19346.00
2023-05-21T11:59:20.188Z,12419.00
2023-05-21T12:00:20.132Z,14393.00
2023-05-21T12:01:20.979Z,20342.00
2023-05-21T12:02:20.054Z,16430.00
2023-05-21T12:03:20.125Z,9151.00
2023-05-21T12:04:19.873Z,14803.00
2023-05-21T12:05:19.862Z,22423.00
2023-05-21T12:06:19.860Z,21651.00
2023-05-21T12:07:20.513Z,27939.00
2023-05-21T12:08:19.670Z,33348.00
2023-05-21T12:09:19.589Z,39952.00
2023-05-21T12:10:19.583Z,38253.00
2023-05-21T12:11:19.482Z,74632.00
2023-05-21T12:12:19.432Z,76429.00
2023-05-21T12:13:19.324Z,75928.00
2023-05-21T12:14:19.329Z,76416.00
2023-05-21T12:15:19.264Z,75980.00
2023-05-21T12:16:19.248Z,73579.00
2023-05-21T12:17:19.079Z,74007.00
2023-05-21T12:18:19.061Z,74306.00
2023-05-21T12:19:19.077Z,73905.00
2023-05-21T12:20:18.955Z,73193.00
2023-05-21T12:21:18.904Z,73449.00
2023-05-21T12:22:18.822Z,74516.00
2023-05-21T12:23:18.961Z,73999.00
2023-05-21T12:24:18.697Z,71545.00
2023-05-21T12:25:18.631Z,36771.00
2023-05-21T12:26:19.020Z,34156.00